sensor_id;sensor_type;location;lat;lon;timestamp;pressure;altitude;pressure_sealevel;temperature;humidity
58761;BME280;44529;47.464;19.014;2022-08-03T00:01:35;100278.03;;;21.17;58.83
58761;BME280;44529;47.464;19.014;2022-08-03T00:04:37;100276.50;;;21.20;59.16
58761;BME280;44529;47.464;19.014;2022-08-03T00:07:39;100281.97;;;21.16;59.43
58761;BME280;44529;47.464;19.014;2022-08-03T00:10:42;100278.84;;;21.21;59.62
58761;BME280;44529;47.464;19.014;2022-08-03T00:13:44;100280.44;;;21.22;59.27
58761;BME280;44529;47.464;19.014;2022-08-03T00:16:46;100281.56;;;21.18;59.60
58761;BME280;44529;47.464;19.014;2022-08-03T00:19:49;100288.22;;;21.13;59.38
58761;BME280;44529;47.464;19.014;2022-08-03T00:22:51;100292.09;;;21.05;59.28
58761;BME280;44529;47.464;19.014;2022-08-03T00:25:53;100290.41;;;20.90;59.66
58761;BME280;44529;47.464;19.014;2022-08-03T00:28:56;100294.28;;;20.85;59.06
58761;BME280;44529;47.464;19.014;2022-08-03T00:31:58;100289.50;;;20.78;59.57
58761;BME280;44529;47.464;19.014;2022-08-03T00:35:02;100298.88;;;20.70;60.13
58761;BME280;44529;47.464;19.014;2022-08-03T00:38:10;100296.88;;;20.67;60.21
58761;BME280;44529;47.464;19.014;2022-08-03T00:41:13;100301.06;;;20.54;60.67
58761;BME280;44529;47.464;19.014;2022-08-03T00:44:16;100296.28;;;20.47;61.13
58761;BME280;44529;47.464;19.014;2022-08-03T00:47:19;100296.53;;;20.35;61.58
58761;BME280;44529;47.464;19.014;2022-08-03T00:50:22;100301.25;;;20.38;61.50
58761;BME280;44529;47.464;19.014;2022-08-03T00:53:26;100299.22;;;20.32;61.71
58761;BME280;44529;47.464;19.014;2022-08-03T00:56:28;100304.28;;;20.26;62.49
58761;BME280;44529;47.464;19.014;2022-08-03T00:59:31;100305.06;;;20.26;62.47
58761;BME280;44529;47.464;19.014;2022-08-03T01:02:33;100297.53;;;20.20;62.69
58761;BME280;44529;47.464;19.014;2022-08-03T01:09:11;100308.22;;;19.95;64.46
58761;BME280;44529;47.464;19.014;2022-08-03T01:12:37;100301.91;;;19.91;64.18
58761;BME280;44529;47.464;19.014;2022-08-03T01:18:56;100303.03;;;19.90;64.40
58761;BME280;44529;47.464;19.014;2022-08-03T01:28:53;100308.97;;;19.92;65.03
58761;BME280;44529;47.464;19.014;2022-08-03T01:32:04;100309.69;;;19.85;65.24
58761;BME280;44529;47.464;19.014;2022-08-03T01:35:42;100308.72;;;19.74;65.96
58761;BME280;44529;47.464;19.014;2022-08-03T01:38:51;100313.44;;;19.73;66.51
58761;BME280;44529;47.464;19.014;2022-08-03T01:42:00;100309.94;;;19.77;66.40
58761;BME280;44529;47.464;19.014;2022-08-03T01:45:09;100311.94;;;19.80;66.54
58761;BME280;44529;47.464;19.014;2022-08-03T01:48:16;100301.69;;;19.77;66.97
58761;BME280;44529;47.464;19.014;2022-08-03T01:51:20;100304.72;;;19.68;68.36
58761;BME280;44529;47.464;19.014;2022-08-03T01:54:23;100300.88;;;19.72;67.49
58761;BME280;44529;47.464;19.014;2022-08-03T01:57:27;100301.69;;;19.77;67.68
58761;BME280;44529;47.464;19.014;2022-08-03T02:00:31;100300.09;;;19.72;68.48
58761;BME280;44529;47.464;19.014;2022-08-03T02:03:37;100306.38;;;19.72;68.17
58761;BME280;44529;47.464;19.014;2022-08-03T02:07:01;100306.38;;;19.72;68.21
58761;BME280;44529;47.464;19.014;2022-08-03T02:10:05;100304.41;;;19.73;68.50
58761;BME280;44529;47.464;19.014;2022-08-03T02:13:08;100311.84;;;19.72;68.79
58761;BME280;44529;47.464;19.014;2022-08-03T02:16:12;100306.38;;;19.72;68.87
58761;BME280;44529;47.464;19.014;2022-08-03T02:19:16;100310.28;;;19.71;68.62
58761;BME280;44529;47.464;19.014;2022-08-03T02:22:20;100308.66;;;19.67;68.84
58761;BME280;44529;47.464;19.014;2022-08-03T02:25:23;100304.72;;;19.68;68.88
58761;BME280;44529;47.464;19.014;2022-08-03T02:28:31;100305.84;;;19.63;68.92
58761;BME280;44529;47.464;19.014;2022-08-03T02:31:35;100308.03;;;19.54;68.44
58761;BME280;44529;47.464;19.014;2022-08-03T02:34:41;100302.16;;;19.52;68.27
58761;BME280;44529;47.464;19.014;2022-08-03T02:37:50;100306.38;;;19.46;68.56
58761;BME280;44529;47.464;19.014;2022-08-03T02:40:54;100309.00;;;19.39;68.90
58761;BME280;44529;47.464;19.014;2022-08-03T02:43:59;100321.69;;;19.24;69.77
58761;BME280;44529;47.464;19.014;2022-08-03T02:47:09;100313.91;;;19.26;69.35
58761;BME280;44529;47.464;19.014;2022-08-03T02:50:14;100320.00;;;19.16;70.06
58761;BME280;44529;47.464;19.014;2022-08-03T02:53:18;100316.41;;;19.12;70.46
58761;BME280;44529;47.464;19.014;2022-08-03T02:56:24;100317.19;;;19.12;70.13
58761;BME280;44529;47.464;19.014;2022-08-03T02:59:29;100317.19;;;19.12;69.85
58761;BME280;44529;47.464;19.014;2022-08-03T03:02:33;100325.37;;;19.09;70.21
58761;BME280;44529;47.464;19.014;2022-08-03T03:05:36;100323.31;;;19.02;70.21
58761;BME280;44529;47.464;19.014;2022-08-03T03:08:58;100322.16;;;19.03;70.42
58761;BME280;44529;47.464;19.014;2022-08-03T03:12:01;100310.66;;;18.94;70.50
58761;BME280;44529;47.464;19.014;2022-08-03T03:15:04;100312.94;;;18.92;71.03
58761;BME280;44529;47.464;19.014;2022-08-03T03:18:07;100314.84;;;18.88;71.15
58761;BME280;44529;47.464;19.014;2022-08-03T03:21:12;100312.84;;;18.85;71.43
58761;BME280;44529;47.464;19.014;2022-08-03T03:24:15;100318.59;;;18.80;71.77
58761;BME280;44529;47.464;19.014;2022-08-03T03:27:17;100318.25;;;18.81;71.56
58761;BME280;44529;47.464;19.014;2022-08-03T03:30:22;100315.53;;;18.81;71.75
58761;BME280;44529;47.464;19.014;2022-08-03T03:33:24;100319.41;;;18.80;71.83
58761;BME280;44529;47.464;19.014;2022-08-03T03:36:29;100319.72;;;18.75;72.28
58761;BME280;44529;47.464;19.014;2022-08-03T03:39:32;100319.34;;;18.77;72.49
58761;BME280;44529;47.464;19.014;2022-08-03T03:42:34;100312.00;;;18.81;72.20
58761;BME280;44529;47.464;19.014;2022-08-03T03:45:37;100320.44;;;18.72;72.63
58761;BME280;44529;47.464;19.014;2022-08-03T03:48:41;100319.59;;;18.68;73.11
58761;BME280;44529;47.464;19.014;2022-08-03T03:51:45;100324.34;;;18.71;73.00
58761;BME280;44529;47.464;19.014;2022-08-03T03:54:47;100326.69;;;18.73;73.19
58761;BME280;44529;47.464;19.014;2022-08-03T03:57:49;100330.69;;;18.75;73.01
58761;BME280;44529;47.464;19.014;2022-08-03T04:00:52;100325.91;;;18.72;73.07
58761;BME280;44529;47.464;19.014;2022-08-03T04:03:55;100330.19;;;18.70;73.31
58761;BME280;44529;47.464;19.014;2022-08-03T04:06:57;100331.34;;;18.69;73.93
58761;BME280;44529;47.464;19.014;2022-08-03T04:10:21;100323.53;;;18.71;73.59
58761;BME280;44529;47.464;19.014;2022-08-03T04:13:49;100331.47;;;18.76;73.68
58761;BME280;44529;47.464;19.014;2022-08-03T04:17:00;100331.09;;;18.77;74.08
58761;BME280;44529;47.464;19.014;2022-08-03T04:20:03;100336.94;;;18.76;74.18
58761;BME280;44529;47.464;19.014;2022-08-03T04:23:07;100347.12;;;18.75;74.10
58761;BME280;44529;47.464;19.014;2022-08-03T04:26:19;100346.31;;;18.75;74.37
58761;BME280;44529;47.464;19.014;2022-08-03T04:29:23;100345.59;;;18.78;74.58
58761;BME280;44529;47.464;19.014;2022-08-03T04:32:27;100349.47;;;18.77;74.76
58761;BME280;44529;47.464;19.014;2022-08-03T04:35:32;100352.53;;;18.72;74.83
58761;BME280;44529;47.464;19.014;2022-08-03T04:39:05;100357.62;;;18.73;74.91
58761;BME280;44529;47.464;19.014;2022-08-03T04:42:12;100353.00;;;18.77;74.98
58761;BME280;44529;47.464;19.014;2022-08-03T04:45:16;100365.97;;;18.80;74.91
58761;BME280;44529;47.464;19.014;2022-08-03T04:48:19;100361.00;;;18.86;74.56
58761;BME280;44529;47.464;19.014;2022-08-03T04:51:22;100364.19;;;18.88;74.93
58761;BME280;44529;47.464;19.014;2022-08-03T04:54:24;100363.00;;;18.89;74.59
58761;BME280;44529;47.464;19.014;2022-08-03T04:57:26;100365.81;;;18.92;74.67
58761;BME280;44529;47.464;19.014;2022-08-03T05:00:29;100371.34;;;18.96;74.91
58761;BME280;44529;47.464;19.014;2022-08-03T05:03:31;100385.97;;;19.04;74.94
58761;BME280;44529;47.464;19.014;2022-08-03T05:06:34;100383.66;;;19.06;75.18
58761;BME280;44529;47.464;19.014;2022-08-03T05:09:36;100382.97;;;19.12;75.09
58761;BME280;44529;47.464;19.014;2022-08-03T05:12:54;100381.97;;;19.20;75.29
58761;BME280;44529;47.464;19.014;2022-08-03T05:15:56;100391.09;;;19.28;75.00
58761;BME280;44529;47.464;19.014;2022-08-03T05:18:58;100386.50;;;19.36;74.94
58761;BME280;44529;47.464;19.014;2022-08-03T05:22:00;100388.16;;;19.40;75.12
58761;BME280;44529;47.464;19.014;2022-08-03T05:25:03;100389.47;;;19.50;74.99
58761;BME280;44529;47.464;19.014;2022-08-03T05:28:06;100397.41;;;19.55;75.58
58761;BME280;44529;47.464;19.014;2022-08-03T05:31:08;100396.37;;;19.63;75.28
58761;BME280;44529;47.464;19.014;2022-08-03T05:34:10;100396.94;;;19.76;75.07
58761;BME280;44529;47.464;19.014;2022-08-03T05:37:13;100401.03;;;19.86;74.81
58761;BME280;44529;47.464;19.014;2022-08-03T05:40:15;100398.38;;;19.93;74.77
58761;BME280;44529;47.464;19.014;2022-08-03T05:43:18;100388.69;;;20.02;78.67
58761;BME280;44529;47.464;19.014;2022-08-03T05:46:23;100400.59;;;20.10;81.40
58761;BME280;44529;47.464;19.014;2022-08-03T05:49:26;100399.13;;;20.20;77.31
58761;BME280;44529;47.464;19.014;2022-08-03T05:52:28;100398.91;;;20.32;76.17
58761;BME280;44529;47.464;19.014;2022-08-03T05:55:31;100406.44;;;20.39;76.49
58761;BME280;44529;47.464;19.014;2022-08-03T05:58:33;100408.91;;;20.47;76.77
58761;BME280;44529;47.464;19.014;2022-08-03T06:01:35;100406.28;;;20.58;77.01
58761;BME280;44529;47.464;19.014;2022-08-03T06:04:38;100412.31;;;20.71;76.31
58761;BME280;44529;47.464;19.014;2022-08-03T06:07:40;100416.00;;;20.86;77.18
58761;BME280;44529;47.464;19.014;2022-08-03T06:10:43;100419.34;;;21.02;75.69
58761;BME280;44529;47.464;19.014;2022-08-03T06:13:45;100424.94;;;21.13;74.41
58761;BME280;44529;47.464;19.014;2022-08-03T06:16:47;100426.28;;;21.29;74.48
58761;BME280;44529;47.464;19.014;2022-08-03T06:19:51;100426.06;;;21.49;73.58
58761;BME280;44529;47.464;19.014;2022-08-03T06:22:54;100422.97;;;21.57;72.20
58761;BME280;44529;47.464;19.014;2022-08-03T06:26:02;100415.19;;;21.70;72.00
58761;BME280;44529;47.464;19.014;2022-08-03T06:29:04;100427.88;;;21.82;71.76
58761;BME280;44529;47.464;19.014;2022-08-03T06:32:10;100422.47;;;22.00;68.95
58761;BME280;44529;47.464;19.014;2022-08-03T06:35:13;100433.53;;;22.07;69.62
58761;BME280;44529;47.464;19.014;2022-08-03T06:38:15;100432.47;;;22.19;68.96
58761;BME280;44529;47.464;19.014;2022-08-03T06:41:17;100428.19;;;22.32;69.90
58761;BME280;44529;47.464;19.014;2022-08-03T06:44:20;100423.50;;;22.36;68.20
58761;BME280;44529;47.464;19.014;2022-08-03T06:47:22;100431.41;;;22.48;68.34
58761;BME280;44529;47.464;19.014;2022-08-03T06:50:24;100437.34;;;22.57;67.46
58761;BME280;44529;47.464;19.014;2022-08-03T06:53:27;100427.94;;;22.65;66.63
58761;BME280;44529;47.464;19.014;2022-08-03T06:56:29;100429.91;;;22.68;65.87
58761;BME280;44529;47.464;19.014;2022-08-03T06:59:32;100437.00;;;22.73;66.09
58761;BME280;44529;47.464;19.014;2022-08-03T07:02:54;100441.38;;;22.85;66.89
58761;BME280;44529;47.464;19.014;2022-08-03T07:05:59;100440.66;;;22.95;65.84
58761;BME280;44529;47.464;19.014;2022-08-03T07:09:02;100436.75;;;23.07;66.15
58761;BME280;44529;47.464;19.014;2022-08-03T07:12:04;100441.84;;;23.12;64.55
58761;BME280;44529;47.464;19.014;2022-08-03T07:15:07;100438.72;;;23.24;65.16
58761;BME280;44529;47.464;19.014;2022-08-03T07:18:21;100441.50;;;23.42;62.49
58761;BME280;44529;47.464;19.014;2022-08-03T07:21:31;100437.56;;;23.68;62.14
58761;BME280;44529;47.464;19.014;2022-08-03T07:24:33;100432.44;;;23.81;61.52
58761;BME280;44529;47.464;19.014;2022-08-03T07:27:35;100434.78;;;23.96;61.16
58761;BME280;44529;47.464;19.014;2022-08-03T07:30:39;100438.66;;;24.17;61.78
58761;BME280;44529;47.464;19.014;2022-08-03T07:33:41;100439.41;;;24.42;60.12
58761;BME280;44529;47.464;19.014;2022-08-03T07:36:44;100439.28;;;24.71;59.95
58761;BME280;44529;47.464;19.014;2022-08-03T07:39:46;100437.53;;;24.98;58.38
58761;BME280;44529;47.464;19.014;2022-08-03T07:42:49;100434.97;;;25.29;58.27
58761;BME280;44529;47.464;19.014;2022-08-03T07:45:54;100433.94;;;25.60;56.63
58761;BME280;44529;47.464;19.014;2022-08-03T07:48:56;100440.75;;;25.93;58.24
58761;BME280;44529;47.464;19.014;2022-08-03T07:51:59;100437.37;;;26.16;55.34
58761;BME280;44529;47.464;19.014;2022-08-03T07:55:23;100437.00;;;26.49;55.51
58761;BME280;44529;47.464;19.014;2022-08-03T07:58:25;100431.13;;;26.73;52.89
58761;BME280;44529;47.464;19.014;2022-08-03T08:01:28;100426.91;;;26.92;51.43
58761;BME280;44529;47.464;19.014;2022-08-03T08:04:31;100428.81;;;27.26;51.80
58761;BME280;44529;47.464;19.014;2022-08-03T08:07:33;100428.69;;;27.57;49.11
58761;BME280;44529;47.464;19.014;2022-08-03T08:10:36;100438.97;;;27.83;49.57
58761;BME280;44529;47.464;19.014;2022-08-03T08:13:38;100429.22;;;27.95;48.44
58761;BME280;44529;47.464;19.014;2022-08-03T08:16:40;100433.97;;;28.38;47.34
58761;BME280;44529;47.464;19.014;2022-08-03T08:19:43;100437.72;;;28.67;46.65
58761;BME280;44529;47.464;19.014;2022-08-03T08:22:55;100436.25;;;28.99;46.06
58761;BME280;44529;47.464;19.014;2022-08-03T08:25:58;100433.56;;;29.28;44.02
58761;BME280;44529;47.464;19.014;2022-08-03T08:29:00;100438.38;;;29.60;43.97
58761;BME280;44529;47.464;19.014;2022-08-03T08:32:02;100438.50;;;29.85;42.49
58761;BME280;44529;47.464;19.014;2022-08-03T08:35:08;100428.97;;;30.15;43.22
58761;BME280;44529;47.464;19.014;2022-08-03T08:38:10;100423.87;;;30.52;41.89
58761;BME280;44529;47.464;19.014;2022-08-03T08:41:14;100426.63;;;30.81;41.10
58761;BME280;44529;47.464;19.014;2022-08-03T08:44:16;100426.63;;;30.94;40.93
58761;BME280;44529;47.464;19.014;2022-08-03T08:47:23;100424.72;;;31.42;38.30
58761;BME280;44529;47.464;19.014;2022-08-03T08:50:27;100422.31;;;31.66;37.32
58761;BME280;44529;47.464;19.014;2022-08-03T08:53:30;100418.50;;;31.25;38.14
58761;BME280;44529;47.464;19.014;2022-08-03T08:56:34;100421.19;;;31.63;36.96
58761;BME280;44529;47.464;19.014;2022-08-03T08:59:38;100410.94;;;31.47;38.05
58761;BME280;44529;47.464;19.014;2022-08-03T09:02:51;100414.81;;;31.97;38.31
58761;BME280;44529;47.464;19.014;2022-08-03T09:05:54;100415.00;;;32.25;36.27
58761;BME280;44529;47.464;19.014;2022-08-03T09:08:57;100415.94;;;32.44;35.71
58761;BME280;44529;47.464;19.014;2022-08-03T09:11:59;100406.78;;;32.52;35.17
58761;BME280;44529;47.464;19.014;2022-08-03T09:15:25;100410.63;;;32.68;35.67
58761;BME280;44529;47.464;19.014;2022-08-03T09:18:28;100414.22;;;33.08;34.49
58761;BME280;44529;47.464;19.014;2022-08-03T09:21:34;100403.66;;;33.22;34.02
58761;BME280;44529;47.464;19.014;2022-08-03T09:24:36;100405.44;;;33.47;33.18
58761;BME280;44529;47.464;19.014;2022-08-03T09:27:44;100408.44;;;33.71;32.87
58761;BME280;44529;47.464;19.014;2022-08-03T09:30:58;100403.91;;;33.82;31.92
58761;BME280;44529;47.464;19.014;2022-08-03T09:34:05;100401.84;;;33.55;32.63
58761;BME280;44529;47.464;19.014;2022-08-03T09:37:13;100397.44;;;33.36;32.70
58761;BME280;44529;47.464;19.014;2022-08-03T09:40:33;100395.78;;;33.48;32.83
58761;BME280;44529;47.464;19.014;2022-08-03T09:43:45;100400.50;;;33.69;33.32
58761;BME280;44529;47.464;19.014;2022-08-03T09:46:54;100396.25;;;33.55;31.82
58761;BME280;44529;47.464;19.014;2022-08-03T09:50:02;100396.25;;;33.46;32.71
58761;BME280;44529;47.464;19.014;2022-08-03T09:53:05;100386.75;;;33.53;32.51
58761;BME280;44529;47.464;19.014;2022-08-03T09:56:07;100385.84;;;33.56;32.89
58761;BME280;44529;47.464;19.014;2022-08-03T09:59:31;100383.66;;;33.78;32.24
58761;BME280;44529;47.464;19.014;2022-08-03T10:02:35;100382.25;;;33.83;31.33
58761;BME280;44529;47.464;19.014;2022-08-03T10:05:38;100375.38;;;33.84;32.05
58761;BME280;44529;47.464;19.014;2022-08-03T10:08:45;100373.34;;;33.93;30.73
58761;BME280;44529;47.464;19.014;2022-08-03T10:11:48;100370.56;;;33.93;30.57
58761;BME280;44529;47.464;19.014;2022-08-03T10:14:50;100366.19;;;34.02;31.61
58761;BME280;44529;47.464;19.014;2022-08-03T10:17:53;100367.88;;;33.81;31.63
58761;BME280;44529;47.464;19.014;2022-08-03T10:21:03;100367.91;;;33.99;31.29
58761;BME280;44529;47.464;19.014;2022-08-03T10:24:08;100376.16;;;34.03;30.62
58761;BME280;44529;47.464;19.014;2022-08-03T10:27:12;100365.87;;;33.72;31.12
58761;BME280;44529;47.464;19.014;2022-08-03T10:30:16;100358.09;;;33.49;31.09
58761;BME280;44529;47.464;19.014;2022-08-03T10:33:26;100358.50;;;33.10;32.65
58761;BME280;44529;47.464;19.014;2022-08-03T10:36:51;100366.97;;;32.48;33.25
58761;BME280;44529;47.464;19.014;2022-08-03T10:39:55;100358.31;;;32.65;33.17
58761;BME280;44529;47.464;19.014;2022-08-03T10:43:06;100353.84;;;32.76;33.09
58761;BME280;44529;47.464;19.014;2022-08-03T10:46:10;100355.50;;;32.96;32.95
58761;BME280;44529;47.464;19.014;2022-08-03T10:49:19;100350.56;;;33.18;32.89
58761;BME280;44529;47.464;19.014;2022-08-03T10:52:55;100341.44;;;33.45;31.73
58761;BME280;44529;47.464;19.014;2022-08-03T10:55:57;100330.69;;;33.44;31.40
58761;BME280;44529;47.464;19.014;2022-08-03T11:03:07;100328.03;;;33.40;31.79
58761;BME280;44529;47.464;19.014;2022-08-03T11:06:20;100330.66;;;33.25;32.02
58761;BME280;44529;47.464;19.014;2022-08-03T11:09:22;100324.91;;;33.56;31.42
58761;BME280;44529;47.464;19.014;2022-08-03T11:12:31;100321.03;;;33.45;30.88
58761;BME280;44529;47.464;19.014;2022-08-03T11:15:34;100308.09;;;33.47;30.00
58761;BME280;44529;47.464;19.014;2022-08-03T11:18:54;100306.19;;;33.26;30.43
58761;BME280;44529;47.464;19.014;2022-08-03T11:21:57;100303.06;;;33.05;31.02
58761;BME280;44529;47.464;19.014;2022-08-03T11:25:01;100295.25;;;33.09;31.52
58761;BME280;44529;47.464;19.014;2022-08-03T11:28:26;100292.16;;;33.17;31.35
58761;BME280;44529;47.464;19.014;2022-08-03T11:31:42;100295.44;;;33.06;30.71
58761;BME280;44529;47.464;19.014;2022-08-03T11:38:08;100300.53;;;32.89;30.89
58761;BME280;44529;47.464;19.014;2022-08-03T11:41:31;100293.38;;;32.88;34.16
58761;BME280;44529;47.464;19.014;2022-08-03T11:44:43;100291.22;;;33.01;31.06
58761;BME280;44529;47.464;19.014;2022-08-03T11:47:52;100282.66;;;32.96;30.79
58761;BME280;44529;47.464;19.014;2022-08-03T11:50:55;100279.69;;;32.90;30.19
58761;BME280;44529;47.464;19.014;2022-08-03T11:54:03;100282.66;;;32.96;30.39
58761;BME280;44529;47.464;19.014;2022-08-03T11:57:05;100290.59;;;33.15;31.01
58761;BME280;44529;47.464;19.014;2022-08-03T12:00:24;100281.09;;;32.95;30.72
58761;BME280;44529;47.464;19.014;2022-08-03T12:03:31;100282.41;;;32.63;28.59
58761;BME280;44529;47.464;19.014;2022-08-03T12:06:33;100271.66;;;32.70;30.51
58761;BME280;44529;47.464;19.014;2022-08-03T12:10:12;100277.28;;;32.70;29.48
58761;BME280;44529;47.464;19.014;2022-08-03T12:13:16;100272.44;;;32.71;29.77
58761;BME280;44529;47.464;19.014;2022-08-03T12:16:38;100276.09;;;32.90;30.42
58761;BME280;44529;47.464;19.014;2022-08-03T12:19:42;100271.06;;;32.84;29.27
58761;BME280;44529;47.464;19.014;2022-08-03T12:22:45;100266.91;;;32.89;28.99
58761;BME280;44529;47.464;19.014;2022-08-03T12:25:47;100265.94;;;32.83;29.69
58761;BME280;44529;47.464;19.014;2022-08-03T12:28:50;100260.41;;;32.52;29.36
58761;BME280;44529;47.464;19.014;2022-08-03T12:31:53;100256.41;;;32.53;30.11
58761;BME280;44529;47.464;19.014;2022-08-03T12:34:58;100254.56;;;32.59;29.94
58761;BME280;44529;47.464;19.014;2022-08-03T12:38:02;100238.53;;;32.78;29.23
58761;BME280;44529;47.464;19.014;2022-08-03T12:41:08;100244.78;;;32.73;28.70
58761;BME280;44529;47.464;19.014;2022-08-03T12:44:14;100244.72;;;32.54;29.02
58761;BME280;44529;47.464;19.014;2022-08-03T12:47:16;100247.19;;;32.43;30.52
58761;BME280;44529;47.464;19.014;2022-08-03T12:50:26;100244.47;;;32.30;29.58
58761;BME280;44529;47.464;19.014;2022-08-03T12:53:29;100239.94;;;32.24;30.36
58761;BME280;44529;47.464;19.014;2022-08-03T12:56:31;100235.59;;;32.23;29.93
58761;BME280;44529;47.464;19.014;2022-08-03T12:59:35;100234.50;;;32.20;30.00
58761;BME280;44529;47.464;19.014;2022-08-03T13:02:42;100234.81;;;32.31;29.52
58761;BME280;44529;47.464;19.014;2022-08-03T13:05:47;100239.09;;;32.45;30.42
58761;BME280;44529;47.464;19.014;2022-08-03T13:09:02;100234.63;;;32.57;30.69
58761;BME280;44529;47.464;19.014;2022-08-03T13:12:09;100220.66;;;32.66;30.32
58761;BME280;44529;47.464;19.014;2022-08-03T13:15:11;100230.75;;;32.54;28.88
58761;BME280;44529;47.464;19.014;2022-08-03T13:18:13;100219.72;;;32.60;29.64
58761;BME280;44529;47.464;19.014;2022-08-03T13:21:19;100216.72;;;32.54;28.07
58761;BME280;44529;47.464;19.014;2022-08-03T13:24:22;100217.50;;;32.55;28.78
58761;BME280;44529;47.464;19.014;2022-08-03T13:27:25;100209.87;;;32.55;28.22
58761;BME280;44529;47.464;19.014;2022-08-03T13:30:48;100213.28;;;32.41;28.53
58761;BME280;44529;47.464;19.014;2022-08-03T13:33:50;100204.13;;;32.50;29.28
58761;BME280;44529;47.464;19.014;2022-08-03T13:36:53;100200.84;;;32.51;28.78
58761;BME280;44529;47.464;19.014;2022-08-03T13:40:11;100202.97;;;32.29;28.78
58761;BME280;44529;47.464;19.014;2022-08-03T13:43:15;100204.81;;;32.32;28.74
58761;BME280;44529;47.464;19.014;2022-08-03T13:46:18;100202.03;;;32.32;29.45
58761;BME280;44529;47.464;19.014;2022-08-03T13:49:21;100199.84;;;32.27;29.08
58761;BME280;44529;47.464;19.014;2022-08-03T13:52:23;100198.25;;;32.26;29.75
58761;BME280;44529;47.464;19.014;2022-08-03T13:55:26;100186.53;;;32.40;29.20
58761;BME280;44529;47.464;19.014;2022-08-03T13:58:28;100182.81;;;32.43;29.40
58761;BME280;44529;47.464;19.014;2022-08-03T14:01:31;100189.22;;;32.53;28.48
58761;BME280;44529;47.464;19.014;2022-08-03T14:04:53;100183.75;;;32.58;28.06
58761;BME280;44529;47.464;19.014;2022-08-03T14:07:56;100173.34;;;32.59;28.63
58761;BME280;44529;47.464;19.014;2022-08-03T14:11:06;100171.00;;;32.57;28.74
58761;BME280;44529;47.464;19.014;2022-08-03T14:14:08;100170.34;;;32.44;30.17
58761;BME280;44529;47.464;19.014;2022-08-03T14:17:10;100167.25;;;32.42;28.39
58761;BME280;44529;47.464;19.014;2022-08-03T14:20:12;100172.13;;;32.20;29.05
58761;BME280;44529;47.464;19.014;2022-08-03T14:23:37;100156.91;;;32.21;28.37
58761;BME280;44529;47.464;19.014;2022-08-03T14:26:39;100152.53;;;32.20;28.95
58761;BME280;44529;47.464;19.014;2022-08-03T14:29:41;100154.44;;;32.23;28.76
58761;BME280;44529;47.464;19.014;2022-08-03T14:32:43;100149.13;;;32.25;29.38
58761;BME280;44529;47.464;19.014;2022-08-03T14:35:48;100156.59;;;32.19;29.35
58761;BME280;44529;47.464;19.014;2022-08-03T14:38:51;100159.56;;;32.24;29.09
58761;BME280;44529;47.464;19.014;2022-08-03T14:41:53;100147.62;;;32.33;29.07
58761;BME280;44529;47.464;19.014;2022-08-03T14:44:56;100149.47;;;32.27;28.87
58761;BME280;44529;47.464;19.014;2022-08-03T14:48:06;100141.84;;;32.27;29.14
58761;BME280;44529;47.464;19.014;2022-08-03T14:51:28;100149.13;;;32.25;28.88
58761;BME280;44529;47.464;19.014;2022-08-03T14:54:33;100133.47;;;32.27;29.20
58761;BME280;44529;47.464;19.014;2022-08-03T14:57:35;100142.94;;;32.30;27.60
58761;BME280;44529;47.464;19.014;2022-08-03T15:00:37;100138.87;;;32.31;28.21
58761;BME280;44529;47.464;19.014;2022-08-03T15:03:39;100139.66;;;32.31;30.15
58761;BME280;44529;47.464;19.014;2022-08-03T15:06:42;100132.03;;;32.32;28.31
58761;BME280;44529;47.464;19.014;2022-08-03T15:09:49;100135.16;;;32.25;27.74
58761;BME280;44529;47.464;19.014;2022-08-03T15:12:51;100146.97;;;32.29;28.89
58761;BME280;44529;47.464;19.014;2022-08-03T15:15:56;100142.28;;;32.17;28.58
58761;BME280;44529;47.464;19.014;2022-08-03T15:18:59;100144.72;;;32.05;28.34
58761;BME280;44529;47.464;19.014;2022-08-03T15:22:01;100132.63;;;32.08;29.27
58761;BME280;44529;47.464;19.014;2022-08-03T15:25:04;100129.50;;;32.06;28.99
58761;BME280;44529;47.464;19.014;2022-08-03T15:28:27;100130.56;;;32.00;27.89
58761;BME280;44529;47.464;19.014;2022-08-03T15:31:29;100132.56;;;31.90;28.71
58761;BME280;44529;47.464;19.014;2022-08-03T15:34:31;100130.38;;;31.85;28.81
58761;BME280;44529;47.464;19.014;2022-08-03T15:37:34;100131.44;;;31.78;29.06
58761;BME280;44529;47.464;19.014;2022-08-03T15:40:36;100131.19;;;31.64;29.16
58761;BME280;44529;47.464;19.014;2022-08-03T15:43:40;100126.97;;;31.59;29.10
58761;BME280;44529;47.464;19.014;2022-08-03T15:46:51;100126.84;;;31.63;29.12
58761;BME280;44529;47.464;19.014;2022-08-03T15:49:54;100129.66;;;31.63;29.44
58761;BME280;44529;47.464;19.014;2022-08-03T15:52:56;100122.47;;;31.62;29.60
58761;BME280;44529;47.464;19.014;2022-08-03T15:55:59;100119.66;;;31.52;29.17
58761;BME280;44529;47.464;19.014;2022-08-03T15:59:01;100118.37;;;31.44;29.78
58761;BME280;44529;47.464;19.014;2022-08-03T16:02:15;100119.78;;;31.49;29.70
58761;BME280;44529;47.464;19.014;2022-08-03T16:05:17;100127.72;;;31.50;29.33
58761;BME280;44529;47.464;19.014;2022-08-03T16:08:19;100123.81;;;31.48;29.58
58761;BME280;44529;47.464;19.014;2022-08-03T16:11:22;100107.19;;;31.44;29.68
58761;BME280;44529;47.464;19.014;2022-08-03T16:14:24;100114.47;;;31.42;29.95
58761;BME280;44529;47.464;19.014;2022-08-03T16:17:39;100118.03;;;31.42;30.10
58761;BME280;44529;47.464;19.014;2022-08-03T16:20:42;100116.81;;;31.43;30.14